Airfield :











YOU CAN JOIN US ON...

 
LOGIN :

Register | Disclaimer

   EN    FR    IT 

 









Legend :    VFR   Marginal VFR   IFR   Intensive IFR   Very Intensive IFR
Visi :
Ceiling :
>= 8 km
>= 3000ft
5 to 8 km
1000 to 3000 ft
1500m to 5 km
500 to 1000 ft
800 to 1500m
200 to 500 ft
< 800m
< 200 ft
Symbols :   Thunderstorms  Fog  Heavy snow  Heavy precipitations  Wind > 20 kt






- Airport Elevation : 2205 ft


KVGT - North Las Vegas

CURRENT METAR :
  • 150653Z AUTO 22005KT 10SM OVC042 11/08 A2975 RMK AO2 SLP087 T01060078

EXPIRED METARs :
  • 150553Z AUTO 09004KT 10SM FEW048 OVC085 11/08 A2976 RMK AO2 RAE09 SLP090 P0001 60003 T01060078 10156 20106 53003
  • 150453Z AUTO 34006KT 6SM -RA OVC047 12/08 A2975 RMK AO2 RAB23 SLP087 P0002 T01170078

TAF KVGT
Valid from the 15 at 06:00 until the 16 at 06:00 UTC


150520Z 1506/1606 35007KT P6SM VCSH BKN050 BKN070
FM151200 34011KT P6SM BKN050 BKN070
FM151700 34014G24KT P6SM BKN060



MET'MAP, your aeronautical weather chart ! - Copyright ORBIFLY December 2007 - Disclaimer

ORBIFLY MET'MAP TEAM :

Programming & Development : Alexandra Zaïnal
Concept & original design : Baudouin d'Aumeries
Assistance for programming : Marc-Olivier Méhu
Technical & hardware support : Manuel Goepfert

Contact : metmap@orbifly.com




SOURCES & CREDITS :

   NOAA       Earth
Advisory